createdAt,value
2018-07-12T00:01:27.400Z,16.50
2018-07-12T00:03:54.653Z,15.03
2018-07-12T00:06:21.945Z,16.40
2018-07-12T00:08:49.201Z,17.40
2018-07-12T00:11:16.450Z,17.07
2018-07-12T00:13:43.693Z,17.97
2018-07-12T00:16:11.108Z,16.13
2018-07-12T00:18:38.368Z,17.57
2018-07-12T00:21:05.620Z,17.83
2018-07-12T00:23:43.664Z,15.73
2018-07-12T00:26:10.917Z,19.63
2018-07-12T00:28:38.277Z,18.50
2018-07-12T00:31:05.525Z,16.53
2018-07-12T00:33:32.772Z,18.97
2018-07-12T00:36:00.133Z,18.17
2018-07-12T00:38:27.388Z,17.90
2018-07-12T00:40:54.632Z,18.37
2018-07-12T00:43:21.864Z,17.43
2018-07-12T00:45:49.110Z,18.03
2018-07-12T00:48:16.365Z,17.70
2018-07-12T00:50:43.617Z,18.50
2018-07-12T00:53:10.872Z,16.80
2018-07-12T00:55:38.164Z,16.90
2018-07-12T00:58:05.404Z,16.10
2018-07-12T01:00:32.659Z,15.03
2018-07-12T01:02:59.905Z,16.00
2018-07-12T01:05:27.330Z,15.30
2018-07-12T01:07:54.583Z,15.57
2018-07-12T01:10:21.835Z,14.83
2018-07-12T01:12:49.077Z,16.07
2018-07-12T01:15:16.391Z,15.20
2018-07-12T01:17:43.648Z,14.40
2018-07-12T01:20:10.888Z,14.80
2018-07-12T01:22:38.170Z,13.60
2018-07-12T01:25:05.430Z,14.27
2018-07-12T01:27:32.673Z,14.17
2018-07-12T01:29:59.962Z,14.07
2018-07-12T01:32:27.191Z,13.07
2018-07-12T01:34:54.442Z,13.03
2018-07-12T01:37:21.764Z,12.93
2018-07-12T01:39:49.032Z,12.37
2018-07-12T01:42:16.438Z,12.37
2018-07-12T01:44:43.745Z,11.63
2018-07-12T01:47:10.981Z,13.27
2018-07-12T01:49:38.344Z,12.67
2018-07-12T01:52:05.588Z,13.17
2018-07-12T01:54:32.842Z,14.00
2018-07-12T01:57:00.153Z,12.63
2018-07-12T01:59:27.417Z,12.40
2018-07-12T02:01:54.692Z,13.17
2018-07-12T02:04:21.929Z,12.43
2018-07-12T02:06:49.179Z,12.03
2018-07-12T02:09:16.439Z,13.70
2018-07-12T02:11:43.726Z,13.00
2018-07-12T02:14:25.982Z,12.40
2018-07-12T02:16:53.257Z,13.03
2018-07-12T02:19:20.525Z,13.37
2018-07-12T02:21:47.770Z,12.40
2018-07-12T02:24:15.140Z,12.63
2018-07-12T02:26:42.407Z,12.73
2018-07-12T02:29:09.643Z,13.00
2018-07-12T02:31:36.893Z,12.30
2018-07-12T02:34:04.997Z,13.57
2018-07-12T02:36:32.251Z,12.20
2018-07-12T02:38:59.522Z,12.17
2018-07-12T02:41:26.885Z,12.77
2018-07-12T02:43:54.138Z,13.00
2018-07-12T02:46:21.413Z,13.77
2018-07-12T02:48:48.653Z,14.23
2018-07-12T02:51:15.916Z,14.67
2018-07-12T02:53:43.204Z,14.17
2018-07-12T02:56:10.453Z,15.73
2018-07-12T02:58:37.804Z,14.20
2018-07-12T03:01:05.053Z,15.70
2018-07-12T03:03:32.302Z,14.30
2018-07-12T03:05:59.579Z,17.87
2018-07-12T03:08:26.809Z,17.90
2018-07-12T03:10:54.065Z,18.90
2018-07-12T03:13:21.314Z,18.30
2018-07-12T03:15:48.577Z,18.47
2018-07-12T03:18:15.825Z,21.93
2018-07-12T03:20:43.069Z,19.90
2018-07-12T03:23:10.332Z,19.43
2018-07-12T03:25:37.642Z,20.00
2018-07-12T03:28:04.936Z,22.53
2018-07-12T03:30:32.174Z,23.73
2018-07-12T03:32:59.437Z,21.47
2018-07-12T03:35:26.681Z,20.93
2018-07-12T03:37:53.968Z,22.57
2018-07-12T03:40:21.257Z,24.40
2018-07-12T03:42:48.473Z,23.03
2018-07-12T03:45:15.833Z,22.40
2018-07-12T03:47:43.084Z,21.40
2018-07-12T03:50:10.323Z,25.73
2018-07-12T03:52:37.559Z,23.60
2018-07-12T03:55:04.808Z,25.27
2018-07-12T03:57:32.050Z,23.77
2018-07-12T03:59:59.296Z,24.57
2018-07-12T04:02:26.529Z,24.73
2018-07-12T04:04:53.781Z,22.97
2018-07-12T04:07:21.025Z,21.10
2018-07-12T04:09:48.280Z,25.83
2018-07-12T04:12:15.612Z,22.57
2018-07-12T04:14:42.948Z,24.93
2018-07-12T04:17:10.411Z,22.73
2018-07-12T04:19:37.653Z,24.77
2018-07-12T04:22:04.912Z,22.43
2018-07-12T04:24:32.157Z,22.13
2018-07-12T04:27:31.434Z,25.13
2018-07-12T04:29:59.817Z,22.77
2018-07-12T04:32:27.265Z,24.33
2018-07-12T04:34:54.743Z,21.93
2018-07-12T04:37:21.989Z,19.87
2018-07-12T04:39:49.238Z,19.57
2018-07-12T04:42:16.483Z,20.50
2018-07-12T04:44:43.794Z,19.40
2018-07-12T04:47:11.041Z,20.67
2018-07-12T04:49:41.951Z,17.57
2018-07-12T04:52:09.186Z,19.73
2018-07-12T04:54:36.516Z,16.83
2018-07-12T04:57:03.840Z,17.83
2018-07-12T04:59:31.105Z,16.17
2018-07-12T05:01:58.337Z,16.83
2018-07-12T05:04:25.580Z,17.90
2018-07-12T05:06:52.949Z,18.10
2018-07-12T05:09:20.213Z,16.47
2018-07-12T05:11:47.471Z,17.67
2018-07-12T05:14:14.721Z,17.07
2018-07-12T05:16:42.752Z,15.87
2018-07-12T05:19:09.996Z,16.70
2018-07-12T05:21:37.301Z,16.70
2018-07-12T05:24:04.533Z,15.33
2018-07-12T05:26:31.783Z,16.13
2018-07-12T05:28:59.064Z,14.50
2018-07-12T05:31:26.339Z,14.33
2018-07-12T05:33:53.589Z,15.13
2018-07-12T05:36:59.498Z,14.13
2018-07-12T05:39:43.156Z,15.23
2018-07-12T05:42:11.694Z,15.63
2018-07-12T05:44:40.171Z,13.93
2018-07-12T05:47:08.647Z,14.03
2018-07-12T05:49:37.129Z,13.23
2018-07-12T05:52:05.719Z,13.77
2018-07-12T05:54:34.298Z,13.63
2018-07-12T05:57:02.724Z,13.40
2018-07-12T05:59:31.364Z,13.80
2018-07-12T06:02:11.175Z,12.43
2018-07-12T06:04:39.705Z,13.47
2018-07-12T06:07:08.161Z,13.23
2018-07-12T06:09:36.565Z,12.40
2018-07-12T06:12:05.148Z,12.67
2018-07-12T06:14:33.615Z,12.30
2018-07-12T06:17:02.176Z,13.73
2018-07-12T06:19:30.672Z,11.73
2018-07-12T06:21:59.511Z,11.93
2018-07-12T06:24:28.211Z,12.67
2018-07-12T06:26:56.669Z,12.37
2018-07-12T06:29:25.125Z,12.67
2018-07-12T06:31:53.621Z,11.57
2018-07-12T06:34:22.113Z,12.03
2018-07-12T06:36:50.636Z,11.97
2018-07-12T06:39:19.221Z,12.40
2018-07-12T06:41:47.854Z,12.03
2018-07-12T06:44:16.425Z,11.93
2018-07-12T06:46:44.927Z,12.13
2018-07-12T06:49:13.402Z,12.87
2018-07-12T06:51:41.870Z,12.33
2018-07-12T06:54:10.311Z,13.03
2018-07-12T06:56:38.818Z,12.60
2018-07-12T06:59:07.378Z,12.50
2018-07-12T07:01:35.898Z,12.90
2018-07-12T07:04:04.340Z,12.63
2018-07-12T07:06:32.929Z,11.83
2018-07-12T07:09:01.561Z,13.47
2018-07-12T07:11:30.133Z,12.47
2018-07-12T07:13:58.663Z,10.83
2018-07-12T07:16:27.111Z,12.03
2018-07-12T07:18:55.616Z,12.63
2018-07-12T07:21:24.176Z,11.97
2018-07-12T07:23:52.613Z,10.47
2018-07-12T07:26:21.152Z,9.97
2018-07-12T07:28:50.123Z,11.50
2018-07-12T07:31:18.622Z,11.57
2018-07-12T07:33:47.202Z,11.10
2018-07-12T07:36:15.705Z,11.70
2018-07-12T07:38:44.269Z,12.60
2018-07-12T07:41:12.834Z,12.20
2018-07-12T07:43:41.337Z,11.57
2018-07-12T07:46:09.924Z,12.07
2018-07-12T07:48:38.399Z,12.23
2018-07-12T07:51:07.086Z,12.27
2018-07-12T07:53:35.661Z,12.90
2018-07-12T07:56:04.256Z,12.57
2018-07-12T07:58:32.823Z,12.07
2018-07-12T08:01:01.336Z,11.53
2018-07-12T08:03:30.001Z,11.50
2018-07-12T08:05:58.576Z,10.23
2018-07-12T08:08:27.104Z,10.47
2018-07-12T08:10:55.946Z,10.63
2018-07-12T08:13:24.491Z,7.50
2018-07-12T08:15:53.017Z,8.77
2018-07-12T08:18:21.467Z,7.00
2018-07-12T08:20:50.092Z,9.57
2018-07-12T08:23:18.570Z,8.63
2018-07-12T08:25:47.054Z,9.00
2018-07-12T08:28:26.837Z,8.47
2018-07-12T08:30:55.597Z,8.97
2018-07-12T08:33:24.535Z,9.73
2018-07-12T08:35:52.958Z,7.37
2018-07-12T08:38:21.648Z,8.57
2018-07-12T08:40:50.122Z,9.33
2018-07-12T08:43:18.588Z,7.07
2018-07-12T08:45:47.028Z,9.03
2018-07-12T08:48:15.627Z,8.50
2018-07-12T08:50:44.104Z,8.60
2018-07-12T08:53:12.988Z,8.87
2018-07-12T08:55:41.432Z,7.40
2018-07-12T08:58:09.924Z,9.37
2018-07-12T09:00:38.409Z,6.87
2018-07-12T09:03:07.091Z,9.40
2018-07-12T09:05:35.649Z,6.83
2018-07-12T09:08:04.125Z,8.80
2018-07-12T09:10:32.654Z,9.37
2018-07-12T09:13:01.188Z,8.80
2018-07-12T09:15:29.667Z,7.77
2018-07-12T09:17:58.144Z,7.87
2018-07-12T09:20:26.681Z,6.53
2018-07-12T09:22:55.243Z,7.43
2018-07-12T09:25:23.906Z,6.73
2018-07-12T09:27:52.397Z,7.60
2018-07-12T09:30:20.992Z,6.03
2018-07-12T09:36:21.041Z,6.77
2018-07-12T09:38:50.655Z,7.53
2018-07-12T09:41:19.837Z,5.93
2018-07-12T09:43:48.931Z,6.10
2018-07-12T09:46:17.621Z,5.90
2018-07-12T09:48:47.636Z,6.97
2018-07-12T09:51:16.354Z,5.70
2018-07-12T09:53:45.740Z,6.50
2018-07-12T09:56:14.378Z,6.17
2018-07-12T09:58:43.010Z,7.33
2018-07-12T10:01:16.967Z,5.73
2018-07-12T10:03:47.267Z,6.73
2018-07-12T10:06:21.113Z,5.73
2018-07-12T10:08:54.921Z,6.67
2018-07-12T10:11:28.676Z,4.60
2018-07-12T10:14:02.526Z,6.37
2018-07-12T10:16:36.395Z,5.37
2018-07-12T10:19:04.969Z,6.50
2018-07-12T10:21:33.542Z,5.17
2018-07-12T10:24:02.037Z,6.40
2018-07-12T10:26:30.598Z,5.47
2018-07-12T10:28:59.071Z,5.97
2018-07-12T10:31:27.516Z,4.80
2018-07-12T10:33:55.946Z,5.37
2018-07-12T10:36:24.533Z,6.00
2018-07-12T10:38:53.117Z,5.83
2018-07-12T10:41:21.785Z,5.00
2018-07-12T10:43:50.277Z,5.60
2018-07-12T10:46:18.771Z,5.37
2018-07-12T10:48:47.238Z,6.20
2018-07-12T10:51:15.692Z,5.67
2018-07-12T10:53:44.299Z,6.23
2018-07-12T10:56:12.781Z,5.63
2018-07-12T10:58:41.269Z,6.23
2018-07-12T11:01:09.774Z,4.83
2018-07-12T11:03:38.320Z,6.67
2018-07-12T11:06:06.772Z,5.30
2018-07-12T11:08:35.233Z,5.67
2018-07-12T11:11:03.917Z,4.87
2018-07-12T11:13:43.589Z,5.33
2018-07-12T11:16:12.100Z,4.80
2018-07-12T11:18:40.557Z,4.90
2018-07-12T11:21:09.041Z,5.17
2018-07-12T11:23:37.555Z,4.70
2018-07-12T11:26:06.141Z,5.07
2018-07-12T11:28:34.615Z,5.20
2018-07-12T11:31:03.209Z,4.63
2018-07-12T11:33:38.075Z,4.67
2018-07-12T11:36:07.143Z,4.47
2018-07-12T11:38:37.231Z,4.43
2018-07-12T11:41:05.925Z,4.47
2018-07-12T11:43:34.443Z,5.10
2018-07-12T11:46:04.409Z,3.80
2018-07-12T11:48:33.918Z,3.40
2018-07-12T11:51:02.413Z,4.10
2018-07-12T11:53:30.924Z,3.97
2018-07-12T11:55:59.450Z,3.93
2018-07-12T11:58:28.048Z,4.23
2018-07-12T12:00:57.546Z,3.83
2018-07-12T12:03:26.628Z,4.23
2018-07-12T12:05:55.132Z,3.57
2018-07-12T12:08:24.145Z,4.37
2018-07-12T12:10:52.577Z,4.13
2018-07-12T12:13:21.077Z,3.93
2018-07-12T12:15:49.577Z,3.63
2018-07-12T12:18:18.060Z,4.00
2018-07-12T12:20:46.637Z,4.00
2018-07-12T12:23:15.116Z,3.10
2018-07-12T12:25:43.810Z,3.57
2018-07-12T12:28:12.392Z,3.30
2018-07-12T12:30:40.913Z,3.40
2018-07-12T12:33:09.357Z,3.00
2018-07-12T12:35:37.987Z,3.30
2018-07-12T12:38:06.504Z,3.00
2018-07-12T12:40:34.980Z,3.60
2018-07-12T12:43:03.576Z,3.00
2018-07-12T12:45:32.064Z,2.87
2018-07-12T12:48:00.618Z,2.80
2018-07-12T12:50:29.127Z,2.80
2018-07-12T12:52:57.593Z,3.10
2018-07-12T12:55:26.097Z,3.53
2018-07-12T12:57:54.604Z,3.10
2018-07-12T13:00:23.136Z,3.20
2018-07-12T13:02:51.717Z,3.20
2018-07-12T13:05:20.198Z,3.10
2018-07-12T13:07:48.657Z,3.40
2018-07-12T13:10:17.229Z,3.33
2018-07-12T13:12:45.745Z,2.40
2018-07-12T13:15:14.241Z,3.10
2018-07-12T13:17:42.722Z,3.07
2018-07-12T13:20:11.315Z,3.20
2018-07-12T13:22:39.881Z,2.67
2018-07-12T13:25:10.660Z,2.90
2018-07-12T13:27:40.670Z,2.77
2018-07-12T13:30:11.568Z,2.60
2018-07-12T13:32:42.560Z,3.03
2018-07-12T13:35:12.576Z,3.30
2018-07-12T13:37:45.074Z,3.23
2018-07-12T13:40:15.572Z,2.97
2018-07-12T13:42:46.545Z,2.93
2018-07-12T13:45:17.233Z,2.60
2018-07-12T13:47:49.166Z,2.87
2018-07-12T13:50:19.398Z,2.70
2018-07-12T13:52:50.327Z,2.60
2018-07-12T13:55:20.989Z,2.73
2018-07-12T13:57:51.935Z,2.83
2018-07-12T14:00:20.769Z,3.40
2018-07-12T14:02:49.565Z,2.70
2018-07-12T14:05:18.057Z,2.57
2018-07-12T14:07:46.632Z,2.40
2018-07-12T14:10:15.174Z,2.70
2018-07-12T14:12:43.634Z,2.80
2018-07-12T14:15:12.191Z,2.80
2018-07-12T14:17:40.741Z,2.70
2018-07-12T14:20:09.231Z,2.70
2018-07-12T14:22:37.732Z,2.50
2018-07-12T14:25:06.214Z,3.53
2018-07-12T14:27:35.366Z,3.50
2018-07-12T14:30:03.930Z,3.77
2018-07-12T14:32:33.219Z,3.33
2018-07-12T14:35:01.804Z,3.27
2018-07-12T14:37:55.665Z,3.30
2018-07-12T14:40:24.253Z,3.13
2018-07-12T14:42:52.823Z,3.40
2018-07-12T14:45:23.094Z,3.73
2018-07-12T14:47:51.715Z,3.03
2018-07-12T14:50:20.222Z,2.60
2018-07-12T14:52:48.834Z,2.87
2018-07-12T14:55:17.376Z,3.07
2018-07-12T14:57:45.845Z,2.80
2018-07-12T15:00:14.313Z,3.40
2018-07-12T15:02:42.912Z,2.87
2018-07-12T15:05:11.434Z,2.80
2018-07-12T15:07:39.975Z,3.50
2018-07-12T15:10:08.464Z,3.20
2018-07-12T15:12:37.018Z,3.00
2018-07-12T15:15:05.895Z,3.60
2018-07-12T15:17:34.350Z,3.07
2018-07-12T15:20:02.897Z,3.23
2018-07-12T15:22:31.399Z,3.00
2018-07-12T15:24:59.983Z,3.30
2018-07-12T15:27:28.573Z,3.10
2018-07-12T15:29:57.524Z,3.13
2018-07-12T15:32:26.645Z,2.30
2018-07-12T15:34:55.380Z,2.60
2018-07-12T15:37:24.424Z,3.47
2018-07-12T15:39:53.273Z,2.23
2018-07-12T15:42:22.218Z,2.60
2018-07-12T15:44:51.285Z,2.60
2018-07-12T15:47:20.686Z,2.23
2018-07-12T15:49:49.721Z,2.80
2018-07-12T15:52:19.147Z,2.57
2018-07-12T15:54:48.649Z,2.33
2018-07-12T15:57:17.197Z,2.73
2018-07-12T15:59:46.581Z,2.87
2018-07-12T16:02:18.745Z,2.77
2018-07-12T16:04:48.259Z,3.20
2018-07-12T16:07:16.868Z,3.20
2018-07-12T16:09:46.252Z,3.63
2018-07-12T16:12:14.671Z,2.63
2018-07-12T16:14:43.113Z,3.27
2018-07-12T16:17:11.590Z,3.07
2018-07-12T16:19:40.167Z,3.03
2018-07-12T16:22:08.645Z,2.70
2018-07-12T16:24:37.250Z,3.20
2018-07-12T16:27:06.858Z,2.93
2018-07-12T16:29:35.358Z,3.10
2018-07-12T16:32:03.928Z,3.00
2018-07-12T16:34:32.665Z,2.90
2018-07-12T16:37:01.493Z,3.00
2018-07-12T16:39:29.969Z,2.70
2018-07-12T16:41:58.561Z,2.47
2018-07-12T16:44:26.973Z,2.67
2018-07-12T16:46:55.553Z,2.90
2018-07-12T16:49:23.988Z,2.70
2018-07-12T16:51:52.521Z,2.93
2018-07-12T16:54:21.054Z,2.70
2018-07-12T16:56:49.543Z,2.30
2018-07-12T16:59:18.682Z,2.47
2018-07-12T17:01:47.302Z,2.63
2018-07-12T17:04:15.892Z,2.47
2018-07-12T17:06:44.474Z,2.50
2018-07-12T17:09:13.075Z,2.63
2018-07-12T17:11:41.660Z,2.57
2018-07-12T17:14:10.195Z,2.73
2018-07-12T17:16:38.708Z,2.37
2018-07-12T17:19:07.195Z,2.23
2018-07-12T17:21:35.679Z,2.50
2018-07-12T17:24:04.194Z,2.40
2018-07-12T17:26:32.736Z,2.63
2018-07-12T17:29:01.373Z,3.00
2018-07-12T17:31:29.973Z,2.57
2018-07-12T17:33:58.400Z,2.57
2018-07-12T17:36:26.874Z,2.40
2018-07-12T17:38:55.360Z,2.17
2018-07-12T17:41:23.906Z,2.30
2018-07-12T17:43:52.411Z,2.10
2018-07-12T17:46:21.582Z,2.77
2018-07-12T17:48:50.074Z,2.90
2018-07-12T17:51:18.576Z,2.00
2018-07-12T17:53:47.056Z,2.20
2018-07-12T17:56:15.680Z,2.20
2018-07-12T17:58:44.265Z,2.10
2018-07-12T18:01:12.703Z,2.00
2018-07-12T18:03:41.201Z,2.43
2018-07-12T18:06:10.201Z,2.37
2018-07-12T18:08:38.735Z,2.13
2018-07-12T18:11:07.246Z,2.33
2018-07-12T18:13:35.716Z,2.47
2018-07-12T18:16:04.299Z,2.87
2018-07-12T18:18:32.801Z,2.03
2018-07-12T18:21:01.278Z,2.10
2018-07-12T18:23:29.744Z,1.93
2018-07-12T18:25:58.877Z,2.60
2018-07-12T18:28:27.377Z,2.40
2018-07-12T18:30:55.902Z,2.20
2018-07-12T18:33:24.376Z,1.90
2018-07-12T18:35:52.839Z,2.10
2018-07-12T18:38:21.378Z,1.80
2018-07-12T18:40:50.037Z,2.27
2018-07-12T18:43:18.524Z,1.90
2018-07-12T18:45:47.097Z,2.23
2018-07-12T18:48:15.800Z,2.40
2018-07-12T18:50:44.273Z,2.10
2018-07-12T18:53:12.746Z,2.13
2018-07-12T18:55:41.215Z,2.30
2018-07-12T18:58:11.950Z,1.90
2018-07-12T19:00:40.446Z,2.40
2018-07-12T19:03:08.926Z,1.97
2018-07-12T19:05:37.464Z,2.60
2018-07-12T19:08:06.209Z,2.47
2018-07-12T19:10:34.690Z,1.90
2018-07-12T19:13:03.226Z,2.00
2018-07-12T19:15:31.757Z,2.50
2018-07-12T19:18:00.329Z,2.47
2018-07-12T19:20:28.858Z,2.47
2018-07-12T19:22:57.493Z,2.53
2018-07-12T19:25:25.985Z,2.47
2018-07-12T19:27:54.489Z,1.83
2018-07-12T19:30:23.143Z,2.80
2018-07-12T19:32:51.641Z,1.93
2018-07-12T19:35:20.161Z,2.60
2018-07-12T19:37:48.604Z,1.93
2018-07-12T19:40:17.110Z,2.80
2018-07-12T19:42:45.714Z,2.13
2018-07-12T19:45:14.235Z,2.87
2018-07-12T19:47:42.703Z,2.70
2018-07-12T19:50:11.167Z,2.60
2018-07-12T19:52:39.616Z,2.73
2018-07-12T19:55:08.041Z,2.63
2018-07-12T19:57:36.631Z,2.97
2018-07-12T20:00:05.359Z,2.20
2018-07-12T20:02:35.057Z,3.00
2018-07-12T20:05:03.674Z,2.27
2018-07-12T20:07:32.113Z,2.87
2018-07-12T20:10:00.575Z,2.47
2018-07-12T20:12:29.082Z,3.00
2018-07-12T20:14:58.033Z,2.50
2018-07-12T20:17:26.585Z,3.20
2018-07-12T20:19:55.251Z,2.73
2018-07-12T20:22:23.735Z,3.60
2018-07-12T20:24:52.211Z,3.33
2018-07-12T20:27:20.831Z,3.50
2018-07-12T20:29:57.322Z,2.97
2018-07-12T20:32:26.126Z,3.43
2018-07-12T20:34:54.685Z,3.10
2018-07-12T20:37:23.378Z,3.80
2018-07-12T20:39:51.949Z,3.50
2018-07-12T20:42:20.556Z,3.33
2018-07-12T20:44:49.234Z,3.43
2018-07-12T20:47:17.772Z,3.50
2018-07-12T20:49:46.340Z,3.23
2018-07-12T20:52:14.842Z,3.67
2018-07-12T20:54:43.532Z,2.60
2018-07-12T20:57:24.487Z,4.00
2018-07-12T20:59:53.073Z,3.90
2018-07-12T21:02:23.343Z,4.10
2018-07-12T21:04:52.011Z,3.40
2018-07-12T21:07:20.709Z,4.43
2018-07-12T21:09:49.370Z,4.00
2018-07-12T21:12:18.428Z,3.40
2018-07-12T21:14:46.954Z,4.97
2018-07-12T21:17:15.722Z,3.77
2018-07-12T21:19:44.267Z,3.00
2018-07-12T21:22:14.328Z,4.47
2018-07-12T21:24:42.929Z,3.80
2018-07-12T21:27:11.489Z,3.53
2018-07-12T21:29:39.941Z,4.40
2018-07-12T21:32:08.441Z,3.97
2018-07-12T21:34:36.925Z,4.60
2018-07-12T21:37:05.504Z,3.53
2018-07-12T21:39:34.005Z,4.80
2018-07-12T21:42:02.631Z,4.57
2018-07-12T21:44:31.343Z,4.80
2018-07-12T21:47:00.068Z,4.57
2018-07-12T21:49:28.601Z,4.73
2018-07-12T21:51:57.200Z,4.50
2018-07-12T21:54:25.728Z,4.13
2018-07-12T21:56:54.303Z,4.63
2018-07-12T21:59:22.782Z,4.67
2018-07-12T22:01:51.304Z,4.37
2018-07-12T22:04:19.872Z,3.87
2018-07-12T22:07:29.795Z,5.23
2018-07-12T22:10:01.019Z,5.20
2018-07-12T22:12:32.379Z,4.03
2018-07-12T22:15:03.581Z,4.80
2018-07-12T22:17:34.682Z,5.27
2018-07-12T22:20:06.202Z,4.90
2018-07-12T22:22:39.612Z,5.30
2018-07-12T22:25:10.278Z,4.90
2018-07-12T22:27:41.487Z,5.23
2018-07-12T22:30:12.477Z,4.63
2018-07-12T22:32:43.029Z,4.53
2018-07-12T22:35:14.879Z,4.40
2018-07-12T22:37:45.989Z,4.50
2018-07-12T22:40:16.295Z,3.77
2018-07-12T22:42:46.722Z,3.57
2018-07-12T22:45:17.812Z,4.20
2018-07-12T22:47:48.449Z,3.37
2018-07-12T22:50:19.791Z,3.40
2018-07-12T22:52:50.801Z,3.50
2018-07-12T22:55:22.159Z,3.83
2018-07-12T22:57:53.545Z,3.80
2018-07-12T23:00:24.404Z,3.83
2018-07-12T23:02:55.618Z,3.57
2018-07-12T23:05:26.608Z,2.83
2018-07-12T23:07:58.014Z,3.37
2018-07-12T23:10:28.504Z,3.23
2018-07-12T23:13:01.408Z,3.50
2018-07-12T23:15:32.712Z,3.20
2018-07-12T23:18:03.299Z,3.60
2018-07-12T23:20:34.207Z,3.10
2018-07-12T23:23:05.346Z,3.07
2018-07-12T23:25:37.040Z,3.50
2018-07-12T23:28:08.043Z,3.20
2018-07-12T23:30:39.412Z,3.80
2018-07-12T23:33:11.090Z,3.43
2018-07-12T23:35:45.823Z,3.50
2018-07-12T23:38:16.802Z,3.57
2018-07-12T23:40:49.186Z,3.93
2018-07-12T23:43:20.580Z,4.13
2018-07-12T23:45:51.629Z,3.30
2018-07-12T23:48:22.975Z,3.33
2018-07-12T23:50:54.248Z,3.60
2018-07-12T23:53:25.396Z,4.30
2018-07-12T23:55:56.678Z,3.50
2018-07-12T23:58:27.854Z,4.03
